createdAt,value
2022-11-19T00:00:13.821Z,9.50
2022-11-19T00:02:43.322Z,9.60
2022-11-19T00:05:12.947Z,9.60
2022-11-19T00:07:42.434Z,9.60
2022-11-19T00:10:12.024Z,9.50
2022-11-19T00:12:57.003Z,9.40
2022-11-19T00:15:26.564Z,9.50
2022-11-19T00:17:58.254Z,9.40
2022-11-19T00:20:29.211Z,9.50
2022-11-19T00:22:58.935Z,9.40
2022-11-19T00:25:30.458Z,9.40
2022-11-19T00:28:00.574Z,9.30
2022-11-19T00:30:47.484Z,9.30
2022-11-19T00:33:01.234Z,9.30
2022-11-19T00:35:30.821Z,9.30
2022-11-19T00:38:00.360Z,9.30
2022-11-19T00:40:29.915Z,9.30
2022-11-19T00:43:17.465Z,9.30
2022-11-19T00:45:48.744Z,9.40
2022-11-19T00:48:18.150Z,9.40
2022-11-19T00:50:47.656Z,9.30
2022-11-19T00:53:17.315Z,9.40
2022-11-19T00:55:46.818Z,9.40
2022-11-19T00:58:16.401Z,9.40
2022-11-19T01:00:46.342Z,9.40
2022-11-19T01:03:15.867Z,9.50
2022-11-19T01:05:45.498Z,9.40
2022-11-19T01:08:15.122Z,9.40
2022-11-19T01:10:44.852Z,9.40
2022-11-19T01:13:32.390Z,9.50
2022-11-19T01:16:10.066Z,9.40
2022-11-19T01:18:41.391Z,9.40
2022-11-19T01:21:13.320Z,9.30
2022-11-19T01:23:45.045Z,9.30
2022-11-19T01:26:16.010Z,9.30
2022-11-19T01:28:46.119Z,9.40
2022-11-19T01:31:19.078Z,9.40
2022-11-19T01:33:49.905Z,9.50
2022-11-19T01:36:25.304Z,9.30
2022-11-19T01:38:55.181Z,9.30
2022-11-19T01:41:30.584Z,9.30
2022-11-19T01:44:06.009Z,9.30
2022-11-19T01:46:38.520Z,9.40
2022-11-19T01:49:13.979Z,9.40
2022-11-19T01:51:49.347Z,9.40
2022-11-19T01:54:30.462Z,9.30
2022-11-19T01:57:02.976Z,9.30
2022-11-19T01:59:33.866Z,9.40
2022-11-19T02:02:04.901Z,9.30
2022-11-19T02:04:36.066Z,9.40
2022-11-19T02:07:06.492Z,9.40
2022-11-19T02:09:36.148Z,9.40
2022-11-19T02:12:23.738Z,9.50
2022-11-19T02:15:24.874Z,9.40
2022-11-19T02:18:00.208Z,9.30
2022-11-19T02:20:41.645Z,9.30
2022-11-19T02:23:33.843Z,9.30
2022-11-19T02:26:24.245Z,9.30
2022-11-19T02:29:02.553Z,9.30
2022-11-19T02:32:02.404Z,9.40
2022-11-19T02:34:43.733Z,9.40
2022-11-19T02:37:27.456Z,9.40
2022-11-19T02:40:08.769Z,9.30
2022-11-19T02:42:49.993Z,9.30
2022-11-19T02:45:25.458Z,9.30
2022-11-19T02:48:04.003Z,9.30
2022-11-19T02:50:45.158Z,9.40
2022-11-19T02:53:14.727Z,9.40
2022-11-19T02:55:46.472Z,9.40
2022-11-19T02:58:20.602Z,9.20
2022-11-19T03:01:09.377Z,9.30
2022-11-19T03:03:56.917Z,9.40
2022-11-19T03:06:31.435Z,9.40
2022-11-19T03:09:01.492Z,9.40
2022-11-19T03:11:33.302Z,9.40
2022-11-19T03:14:38.958Z,9.40
2022-11-19T03:17:21.574Z,9.30
2022-11-19T03:22:34.642Z,9.40
2022-11-19T03:25:16.042Z,9.30
2022-11-19T03:27:51.534Z,9.20
2022-11-19T03:30:22.294Z,9.10
2022-11-19T03:32:57.778Z,9.20
2022-11-19T03:35:39.348Z,9.30
2022-11-19T03:38:12.085Z,9.30
2022-11-19T03:40:43.668Z,9.20
2022-11-19T03:43:16.194Z,9.30
2022-11-19T03:45:47.851Z,9.30
2022-11-19T03:48:19.455Z,9.20
2022-11-19T03:51:14.666Z,9.10
2022-11-19T03:53:44.568Z,9.10
2022-11-19T03:56:17.064Z,9.10
2022-11-19T03:58:48.950Z,9.10
2022-11-19T04:01:18.504Z,9.20
2022-11-19T04:03:49.733Z,9.20
2022-11-19T04:06:19.302Z,9.10
2022-11-19T04:08:48.718Z,9.10
2022-11-19T04:13:49.541Z,9.20
2022-11-19T04:16:19.087Z,9.10
2022-11-19T04:18:48.605Z,9.10
2022-11-19T04:21:18.144Z,9.00
2022-11-19T04:23:47.701Z,9.10
2022-11-19T04:26:17.263Z,9.10
2022-11-19T04:28:46.670Z,9.10
2022-11-19T04:31:18.044Z,9.10
2022-11-19T04:33:47.434Z,9.00
2022-11-19T04:36:17.020Z,9.00
2022-11-19T04:38:46.509Z,9.00
2022-11-19T04:41:15.926Z,9.00
2022-11-19T04:43:45.536Z,9.00
2022-11-19T04:46:15.036Z,9.10
2022-11-19T04:48:44.599Z,9.00
2022-11-19T04:51:14.259Z,9.00
2022-11-19T04:53:44.719Z,9.00
2022-11-19T04:56:14.407Z,9.00
2022-11-19T04:58:43.994Z,9.00
2022-11-19T05:01:13.600Z,9.10
2022-11-19T05:03:43.308Z,9.10
2022-11-19T05:06:12.877Z,9.20
2022-11-19T05:08:42.472Z,9.20
2022-11-19T05:11:12.099Z,9.30
2022-11-19T05:13:41.601Z,9.10
2022-11-19T05:16:11.087Z,9.10
2022-11-19T05:18:40.651Z,9.10
2022-11-19T05:21:10.155Z,9.10
2022-11-19T05:23:39.705Z,9.10
2022-11-19T05:26:09.172Z,9.00
2022-11-19T05:28:39.897Z,9.10
2022-11-19T05:31:11.006Z,9.00
2022-11-19T05:33:40.491Z,9.10
2022-11-19T05:36:10.254Z,9.00
2022-11-19T05:38:41.591Z,9.20
2022-11-19T05:41:11.205Z,9.10
2022-11-19T05:43:40.632Z,9.10
2022-11-19T05:46:10.287Z,9.10
2022-11-19T05:48:39.778Z,9.00
2022-11-19T05:51:11.768Z,9.00
2022-11-19T05:53:41.368Z,9.00
2022-11-19T05:56:11.094Z,9.00
2022-11-19T05:58:40.600Z,8.90
2022-11-19T06:01:10.685Z,8.90
2022-11-19T06:03:41.178Z,8.90
2022-11-19T06:06:10.810Z,8.90
2022-11-19T06:08:40.250Z,8.90
2022-11-19T06:11:11.366Z,8.80
2022-11-19T06:13:40.804Z,8.90
2022-11-19T06:16:10.285Z,8.80
2022-11-19T06:18:39.858Z,8.90
2022-11-19T06:21:12.123Z,8.90
2022-11-19T06:23:40.385Z,8.90
2022-11-19T06:26:11.654Z,9.00
2022-11-19T06:28:41.123Z,8.90
2022-11-19T06:31:10.615Z,8.90
2022-11-19T06:33:40.115Z,8.80
2022-11-19T06:36:10.897Z,8.90
2022-11-19T06:38:40.458Z,8.90
2022-11-19T06:41:10.090Z,8.90
2022-11-19T06:43:39.735Z,8.90
2022-11-19T06:46:09.226Z,8.90
2022-11-19T06:48:39.322Z,8.90
2022-11-19T06:51:08.971Z,8.90
2022-11-19T06:53:39.647Z,8.90
2022-11-19T06:56:09.902Z,8.90
2022-11-19T06:58:39.480Z,8.80
2022-11-19T07:01:08.977Z,8.90
2022-11-19T07:03:38.399Z,8.90
2022-11-19T07:06:08.194Z,8.90
2022-11-19T07:08:39.549Z,8.80
2022-11-19T07:11:27.405Z,8.80
2022-11-19T07:13:58.543Z,8.80
2022-11-19T07:16:31.036Z,8.80
2022-11-19T07:19:02.406Z,8.90
2022-11-19T07:21:33.226Z,8.90
2022-11-19T07:24:05.203Z,8.90
2022-11-19T07:26:36.466Z,8.90
2022-11-19T07:29:08.399Z,9.00
2022-11-19T07:31:37.888Z,8.90
2022-11-19T07:34:09.506Z,8.80
2022-11-19T07:36:39.361Z,8.70
2022-11-19T07:39:09.584Z,8.80
2022-11-19T07:41:56.905Z,8.70
2022-11-19T07:44:27.109Z,8.70
2022-11-19T07:46:56.683Z,8.70
2022-11-19T07:49:27.366Z,8.70
2022-11-19T07:51:56.853Z,8.80
2022-11-19T07:54:26.518Z,8.70
2022-11-19T07:56:56.248Z,8.70
2022-11-19T07:59:27.275Z,8.60
2022-11-19T08:01:57.375Z,8.80
2022-11-19T08:04:29.285Z,8.70
2022-11-19T08:06:58.868Z,8.80
2022-11-19T08:09:28.401Z,8.70
2022-11-19T08:11:58.112Z,8.70
2022-11-19T08:14:29.304Z,8.80
2022-11-19T08:17:17.026Z,8.80
2022-11-19T08:19:46.498Z,8.80
2022-11-19T08:22:16.093Z,8.70
2022-11-19T08:24:46.189Z,8.70
2022-11-19T08:27:15.760Z,8.80
2022-11-19T08:29:45.475Z,8.80
2022-11-19T08:32:14.953Z,8.80
2022-11-19T08:34:44.498Z,8.90
2022-11-19T08:37:14.009Z,8.90
2022-11-19T08:39:43.616Z,9.00
2022-11-19T08:42:30.934Z,8.90
2022-11-19T08:45:00.533Z,8.80
2022-11-19T08:47:30.049Z,8.90
2022-11-19T08:49:59.462Z,9.00
2022-11-19T08:52:29.044Z,9.00
2022-11-19T08:54:58.535Z,9.00
2022-11-19T08:57:28.523Z,9.00
2022-11-19T09:00:01.443Z,9.10
2022-11-19T09:02:30.062Z,9.10
2022-11-19T09:04:59.565Z,9.10
2022-11-19T09:07:29.608Z,9.20
2022-11-19T09:09:59.138Z,9.20
2022-11-19T09:12:32.713Z,9.30
2022-11-19T09:15:02.485Z,9.30
2022-11-19T09:17:32.437Z,9.20
2022-11-19T09:20:02.055Z,9.20
2022-11-19T09:22:32.583Z,9.30
2022-11-19T09:25:02.176Z,9.30
2022-11-19T09:27:31.744Z,9.30
2022-11-19T09:30:01.161Z,9.30
2022-11-19T09:32:30.720Z,9.30
2022-11-19T09:35:00.677Z,9.30
2022-11-19T09:37:31.862Z,9.20
2022-11-19T09:40:02.026Z,9.10
2022-11-19T09:42:51.519Z,9.20
2022-11-19T09:45:30.400Z,9.30
2022-11-19T09:48:09.014Z,9.30
2022-11-19T09:50:49.020Z,9.30
2022-11-19T09:53:25.210Z,9.30
2022-11-19T09:55:55.371Z,9.30
2022-11-19T09:58:27.893Z,9.30
2022-11-19T10:00:59.170Z,9.40
2022-11-19T10:03:33.474Z,9.50
2022-11-19T10:06:12.275Z,9.60
2022-11-19T10:08:47.314Z,9.60
2022-11-19T10:11:36.119Z,9.60
2022-11-19T10:14:26.926Z,9.80
2022-11-19T10:16:59.419Z,9.70
2022-11-19T10:19:54.504Z,9.60
2022-11-19T10:22:29.855Z,9.60
2022-11-19T10:25:05.495Z,9.50
2022-11-19T10:27:40.720Z,9.60
2022-11-19T10:30:25.722Z,9.70
2022-11-19T10:32:58.211Z,9.70
2022-11-19T10:35:43.226Z,9.80
2022-11-19T10:38:21.356Z,9.70
2022-11-19T10:40:54.095Z,9.70
2022-11-19T10:43:29.528Z,9.70
2022-11-19T10:46:04.404Z,9.60
2022-11-19T10:48:36.979Z,9.60
2022-11-19T10:51:15.672Z,9.60
2022-11-19T10:53:46.707Z,9.60
2022-11-19T10:56:22.332Z,9.50
2022-11-19T10:58:54.855Z,9.60
2022-11-19T11:01:35.935Z,9.50
2022-11-19T11:04:14.429Z,9.60
2022-11-19T11:06:58.745Z,9.60
2022-11-19T11:09:45.075Z,10.00
2022-11-19T11:12:44.317Z,10.10
2022-11-19T11:15:22.160Z,10.30
2022-11-19T11:18:09.677Z,10.50
2022-11-19T11:20:40.754Z,10.70
2022-11-19T11:23:16.675Z,10.50
2022-11-19T11:25:54.978Z,10.30
2022-11-19T11:28:25.641Z,10.20
2022-11-19T11:31:04.478Z,10.20
2022-11-19T11:33:39.862Z,10.20
2022-11-19T11:36:14.773Z,10.30
2022-11-19T11:38:48.210Z,10.50
2022-11-19T11:42:05.021Z,10.80
2022-11-19T11:44:19.333Z,10.60
2022-11-19T11:46:54.730Z,10.60
2022-11-19T11:49:44.315Z,10.50
2022-11-19T11:52:16.892Z,10.50
2022-11-19T11:55:01.486Z,10.50
2022-11-19T11:57:39.672Z,10.40
2022-11-19T12:00:30.658Z,10.50
2022-11-19T12:03:08.447Z,10.30
2022-11-19T12:06:06.732Z,10.00
2022-11-19T12:08:51.765Z,9.80
2022-11-19T12:11:34.772Z,9.80
2022-11-19T12:14:12.499Z,9.80
2022-11-19T12:16:53.700Z,10.10
2022-11-19T12:19:32.114Z,10.40
2022-11-19T12:22:20.918Z,10.40
2022-11-19T12:25:09.394Z,10.50
2022-11-19T12:27:41.991Z,10.50
2022-11-19T12:30:18.696Z,10.60
2022-11-19T12:32:59.768Z,10.70
2022-11-19T12:35:35.133Z,10.50
2022-11-19T12:38:16.686Z,10.50
2022-11-19T12:40:57.810Z,10.50
2022-11-19T12:44:00.598Z,10.30
2022-11-19T12:46:51.032Z,10.30
2022-11-19T12:49:29.140Z,10.30
2022-11-19T12:52:04.360Z,10.30
2022-11-19T12:54:48.936Z,10.30
2022-11-19T12:57:33.156Z,10.60
2022-11-19T13:00:08.636Z,10.70
2022-11-19T13:02:46.680Z,10.80
2022-11-19T13:05:19.475Z,10.60
2022-11-19T13:07:57.878Z,10.40
2022-11-19T13:10:36.170Z,10.40
2022-11-19T13:13:08.673Z,10.40
2022-11-19T13:15:41.243Z,10.30
2022-11-19T13:18:14.035Z,10.30
2022-11-19T13:20:58.888Z,10.30
2022-11-19T13:23:31.456Z,10.40
2022-11-19T13:26:09.931Z,10.60
2022-11-19T13:28:45.491Z,10.50
2022-11-19T13:31:29.712Z,10.50
2022-11-19T13:34:02.230Z,10.50
2022-11-19T13:36:40.760Z,10.50
2022-11-19T13:39:19.488Z,10.50
2022-11-19T13:42:10.673Z,10.50
2022-11-19T13:44:41.966Z,10.50
2022-11-19T13:47:26.630Z,10.50
2022-11-19T13:49:59.125Z,10.40
2022-11-19T13:52:37.660Z,10.30
2022-11-19T13:55:10.167Z,10.30
2022-11-19T13:57:42.799Z,10.40
2022-11-19T14:00:26.828Z,10.50
2022-11-19T14:03:02.043Z,10.50
2022-11-19T14:05:56.542Z,10.60
2022-11-19T14:08:54.845Z,10.70
2022-11-19T14:11:33.190Z,10.60
2022-11-19T14:14:38.612Z,10.60
2022-11-19T14:17:40.899Z,10.60
2022-11-19T14:20:51.103Z,10.40
2022-11-19T14:24:02.460Z,10.30
2022-11-19T14:26:52.414Z,10.20
2022-11-19T14:29:29.650Z,10.20
2022-11-19T14:32:06.611Z,10.20
2022-11-19T14:34:44.799Z,10.20
2022-11-19T14:37:23.353Z,10.10
2022-11-19T14:39:58.400Z,9.90
2022-11-19T14:42:28.018Z,9.60
2022-11-19T14:45:06.519Z,9.50
2022-11-19T14:47:39.114Z,9.50
2022-11-19T14:50:11.805Z,9.50
2022-11-19T14:52:44.472Z,9.70
2022-11-19T14:55:19.815Z,9.80
2022-11-19T14:58:01.664Z,10.00
2022-11-19T15:00:43.251Z,10.10
2022-11-19T15:03:18.538Z,10.00
2022-11-19T15:05:48.175Z,10.00
2022-11-19T15:08:23.428Z,10.00
2022-11-19T15:11:08.205Z,10.10
2022-11-19T15:13:43.473Z,9.80
2022-11-19T15:16:22.164Z,9.90
2022-11-19T15:18:54.722Z,9.90
2022-11-19T15:21:45.524Z,9.90
2022-11-19T15:24:30.065Z,10.00
2022-11-19T15:27:05.091Z,10.00
2022-11-19T15:30:08.100Z,10.00
2022-11-19T15:32:52.777Z,10.00
2022-11-19T15:35:34.259Z,10.00
2022-11-19T15:38:06.762Z,9.90
2022-11-19T15:40:37.662Z,10.00
2022-11-19T15:43:26.678Z,10.00
2022-11-19T15:46:01.482Z,10.00
2022-11-19T15:48:48.785Z,10.00
2022-11-19T15:51:20.224Z,10.00
2022-11-19T15:54:07.388Z,10.00
2022-11-19T15:56:39.829Z,10.00
2022-11-19T15:59:11.067Z,9.90
2022-11-19T16:01:42.455Z,9.80
2022-11-19T16:04:18.620Z,9.70
2022-11-19T16:06:51.141Z,9.60
2022-11-19T16:09:23.690Z,9.60
2022-11-19T16:12:12.232Z,9.50
2022-11-19T16:15:02.905Z,9.50
2022-11-19T16:17:43.425Z,9.40
2022-11-19T16:20:16.447Z,9.40
2022-11-19T16:23:01.002Z,9.40
2022-11-19T16:25:42.419Z,9.40
2022-11-19T16:28:14.676Z,9.30
2022-11-19T16:30:47.328Z,9.30
2022-11-19T16:33:27.313Z,9.20
2022-11-19T16:36:14.730Z,9.10
2022-11-19T16:38:52.642Z,9.10
2022-11-19T16:41:38.693Z,9.10
2022-11-19T16:44:14.020Z,9.10
2022-11-19T16:46:44.037Z,9.00
2022-11-19T16:49:16.575Z,9.00
2022-11-19T16:51:54.199Z,9.10
2022-11-19T16:54:46.936Z,9.00
2022-11-19T16:57:24.770Z,9.00
2022-11-19T17:00:00.789Z,9.00
2022-11-19T17:02:33.349Z,8.90
2022-11-19T17:05:08.960Z,8.80
2022-11-19T17:07:39.748Z,8.80
2022-11-19T17:10:12.923Z,8.80
2022-11-19T17:12:54.127Z,8.70
2022-11-19T17:15:44.634Z,8.70
2022-11-19T17:18:20.192Z,8.70
2022-11-19T17:20:52.786Z,8.70
2022-11-19T17:23:25.416Z,8.60
2022-11-19T17:25:58.589Z,8.70
2022-11-19T17:28:44.368Z,8.70
2022-11-19T17:31:24.341Z,8.60
2022-11-19T17:33:59.606Z,8.60
2022-11-19T17:36:29.121Z,8.70
2022-11-19T17:38:58.644Z,8.60
2022-11-19T17:41:48.056Z,8.70
2022-11-19T17:44:33.870Z,8.60
2022-11-19T17:47:21.170Z,8.60
2022-11-19T17:49:45.326Z,8.50
2022-11-19T17:52:24.093Z,8.40
2022-11-19T17:54:56.551Z,8.40
2022-11-19T17:57:26.463Z,8.50
2022-11-19T17:59:56.186Z,8.40
2022-11-19T18:02:27.404Z,8.40
2022-11-19T18:04:57.379Z,8.30
2022-11-19T18:07:26.995Z,8.40
2022-11-19T18:09:56.494Z,8.40
2022-11-19T18:12:25.996Z,8.30
2022-11-19T18:14:59.290Z,8.40
2022-11-19T18:17:27.052Z,8.40
2022-11-19T18:19:56.618Z,8.40
2022-11-19T18:22:26.246Z,8.30
2022-11-19T18:24:56.910Z,8.40
2022-11-19T18:27:26.448Z,8.40
2022-11-19T18:29:55.945Z,8.30
2022-11-19T18:32:25.454Z,8.30
2022-11-19T18:34:58.011Z,8.40
2022-11-19T18:37:26.979Z,8.40
2022-11-19T18:39:56.983Z,8.30
2022-11-19T18:42:27.131Z,8.30
2022-11-19T18:44:56.807Z,8.20
2022-11-19T18:47:26.496Z,8.30
2022-11-19T18:49:56.626Z,8.30
2022-11-19T18:52:26.270Z,8.20
2022-11-19T18:54:55.923Z,8.20
2022-11-19T18:57:25.416Z,8.20
2022-11-19T18:59:54.987Z,8.30
2022-11-19T19:02:24.479Z,8.20
2022-11-19T19:04:54.231Z,8.20
2022-11-19T19:07:23.943Z,8.20
2022-11-19T19:09:53.899Z,8.30
2022-11-19T19:12:23.326Z,8.20
2022-11-19T19:14:53.009Z,8.20
2022-11-19T19:17:22.575Z,8.20
2022-11-19T19:19:52.084Z,8.10
2022-11-19T19:22:23.154Z,8.10
2022-11-19T19:24:57.813Z,8.10
2022-11-19T19:27:23.878Z,8.10
2022-11-19T19:29:53.316Z,8.10
2022-11-19T19:32:22.882Z,8.10
2022-11-19T19:34:52.470Z,8.10
2022-11-19T19:37:22.105Z,8.00
2022-11-19T19:39:51.686Z,8.10
2022-11-19T19:42:21.175Z,8.10
2022-11-19T19:44:50.751Z,8.10
2022-11-19T19:47:20.237Z,8.20
2022-11-19T19:49:49.785Z,8.20
2022-11-19T19:52:19.203Z,8.00
2022-11-19T19:54:48.712Z,8.10
2022-11-19T19:57:18.297Z,8.10
2022-11-19T19:59:48.568Z,8.10
2022-11-19T20:02:18.125Z,8.10
2022-11-19T20:04:47.684Z,8.00
2022-11-19T20:07:17.197Z,8.00
2022-11-19T20:09:46.654Z,8.00
2022-11-19T20:12:16.135Z,7.90
2022-11-19T20:14:46.264Z,7.90
2022-11-19T20:17:15.685Z,7.90
2022-11-19T20:19:45.196Z,7.80
2022-11-19T20:22:14.655Z,7.80
2022-11-19T20:24:44.128Z,7.80
2022-11-19T20:27:13.552Z,7.90
2022-11-19T20:29:43.011Z,7.80
2022-11-19T20:32:12.608Z,7.90
2022-11-19T20:34:42.107Z,7.70
2022-11-19T20:37:11.741Z,7.70
2022-11-19T20:39:41.240Z,7.70
2022-11-19T20:42:28.814Z,7.80
2022-11-19T20:44:58.312Z,7.90
2022-11-19T20:47:27.744Z,7.80
2022-11-19T20:49:57.276Z,7.80
2022-11-19T20:52:26.714Z,7.70
2022-11-19T20:54:57.061Z,7.70
2022-11-19T20:57:26.680Z,7.80
2022-11-19T20:59:56.244Z,7.70
2022-11-19T21:02:25.844Z,7.70
2022-11-19T21:04:56.641Z,7.70
2022-11-19T21:07:26.217Z,7.70
2022-11-19T21:09:55.810Z,7.70
2022-11-19T21:12:25.477Z,7.70
2022-11-19T21:14:54.974Z,7.80
2022-11-19T21:17:24.547Z,7.70
2022-11-19T21:19:54.081Z,7.70
2022-11-19T21:22:23.622Z,7.60
2022-11-19T21:24:53.853Z,7.60
2022-11-19T21:27:23.768Z,7.60
2022-11-19T21:29:53.261Z,7.60
2022-11-19T21:32:22.772Z,7.60
2022-11-19T21:34:52.292Z,7.60
2022-11-19T21:37:21.714Z,7.50
2022-11-19T21:39:51.216Z,7.60
2022-11-19T21:42:20.744Z,7.50
2022-11-19T21:44:50.297Z,7.50
2022-11-19T21:47:19.795Z,7.50
2022-11-19T21:49:49.408Z,7.60
2022-11-19T21:52:18.856Z,7.50
2022-11-19T21:54:48.346Z,7.50
2022-11-19T21:57:17.882Z,7.50
2022-11-19T21:59:47.438Z,7.60
2022-11-19T22:02:16.981Z,7.60
2022-11-19T22:04:46.530Z,7.50
2022-11-19T22:07:16.135Z,7.50
2022-11-19T22:09:45.612Z,7.40
2022-11-19T22:12:15.395Z,7.50
2022-11-19T22:14:44.952Z,7.50
2022-11-19T22:17:14.378Z,7.50
2022-11-19T22:19:43.949Z,7.50
2022-11-19T22:22:13.363Z,7.50
2022-11-19T22:24:42.901Z,7.40
2022-11-19T22:27:12.458Z,7.40
2022-11-19T22:29:42.070Z,7.40
2022-11-19T22:32:11.569Z,7.40
2022-11-19T22:34:41.211Z,7.40
2022-11-19T22:37:10.645Z,7.40
2022-11-19T22:39:40.072Z,7.30
2022-11-19T22:42:10.530Z,7.30
2022-11-19T22:44:40.086Z,7.30
2022-11-19T22:47:09.605Z,7.30
2022-11-19T22:49:39.193Z,7.40
2022-11-19T22:52:08.767Z,7.40
2022-11-19T22:54:41.554Z,7.30
2022-11-19T22:57:09.737Z,7.30
2022-11-19T22:59:39.220Z,7.30
2022-11-19T23:02:08.825Z,7.20
2022-11-19T23:04:38.291Z,7.20
2022-11-19T23:07:08.596Z,7.20
2022-11-19T23:09:38.285Z,7.20
2022-11-19T23:12:26.353Z,7.10
2022-11-19T23:14:55.967Z,7.10
2022-11-19T23:17:25.524Z,7.10
2022-11-19T23:19:55.023Z,7.00
2022-11-19T23:22:24.658Z,6.90
2022-11-19T23:24:54.165Z,6.90
2022-11-19T23:27:23.646Z,7.00
2022-11-19T23:29:53.214Z,6.90
2022-11-19T23:32:22.696Z,6.90
2022-11-19T23:34:52.134Z,6.90
2022-11-19T23:37:21.779Z,6.80
2022-11-19T23:39:51.331Z,6.80
2022-11-19T23:42:20.756Z,6.80
2022-11-19T23:44:50.458Z,6.80
2022-11-19T23:47:20.078Z,6.70
2022-11-19T23:49:49.595Z,6.80
2022-11-19T23:52:19.190Z,6.70
2022-11-19T23:54:49.064Z,6.70
2022-11-19T23:57:18.593Z,6.70
2022-11-19T23:59:48.002Z,6.70
